Time;durP1;ratioP1;P1;durP2;ratioP2;P2;SDS_P1;SDS_P2;PMS_P1;PMS_P2;Temp;Humidity;BMP_temperature;BMP_pressure;BME280_temperature;BME280_humidity;BME280_pressure;Samples;Min_cycle;Max_cycle;Signal;HPM_P1;HPM_P2
2024/01/21 00:00:00;;;;;;;1.25;1.25;;;;;;;-3.81;80.40;97900.31;29373;218;63004;-61
2024/01/21 00:00:32;;;;;;;0.80;0.80;;;;;;;-3.79;80.64;97900.91;29371;214;64009;-60
2024/01/21 00:01:04;;;;;;;0.80;0.80;;;;;;;-3.80;80.66;97901.91;29373;212;63004;-60
2024/01/21 00:01:35;;;;;;;0.80;0.80;;;;;;;-3.80;80.29;97902.75;29373;206;63009;-61
2024/01/21 00:02:09;;;;;;;1.15;1.15;;;;;;;-3.76;79.81;97898.75;29373;197;63004;-61
2024/01/21 00:02:41;;;;;;;0.80;0.80;;;;;;;-3.74;79.69;97893.25;29373;241;63008;-60
2024/01/21 00:03:12;;;;;;;0.70;0.70;;;;;;;-3.73;79.89;97894.91;29373;218;63005;-61
2024/01/21 00:03:44;;;;;;;0.90;0.90;;;;;;;-3.73;80.12;97909.00;29373;197;63009;-60
2024/01/21 00:04:15;;;;;;;0.80;0.80;;;;;;;-3.75;79.98;97894.25;29373;264;63005;-60
2024/01/21 00:04:49;;;;;;;0.80;0.80;;;;;;;-3.76;80.32;97903.22;29373;234;63009;-60
2024/01/21 00:05:20;;;;;;;0.70;0.70;;;;;;;-3.76;80.48;97898.75;29373;223;63005;-60
2024/01/21 00:05:56;;;;;;;0.80;0.80;;;;;;;-3.78;80.04;97891.97;29371;232;64009;-60
2024/01/21 00:06:27;;;;;;;0.75;0.75;;;;;;;-3.79;79.82;97899.09;29373;213;63005;-57
2024/01/21 00:06:58;;;;;;;0.80;0.80;;;;;;;-3.77;79.76;97896.25;29373;264;63016;-58
2024/01/21 00:07:29;;;;;;;0.70;0.70;;;;;;;-3.79;79.34;97895.63;29373;213;63004;-61
2024/01/21 00:08:00;;;;;;;0.80;0.80;;;;;;;-3.80;79.55;97892.13;29373;256;63009;-61
2024/01/21 00:08:32;;;;;;;0.70;0.70;;;;;;;-3.78;79.40;97894.62;29372;228;63004;-61
2024/01/21 00:09:03;;;;;;;0.80;0.80;;;;;;;-3.79;79.21;97890.31;29373;240;63009;-61
2024/01/21 00:09:35;;;;;;;0.80;0.80;;;;;;;-3.78;79.48;97889.31;29373;278;63000;-61
2024/01/21 00:10:09;;;;;;;3.22;2.47;;;;;;;-3.78;79.52;97895.44;29373;205;63008;-61
2024/01/21 00:10:41;;;;;;;0.80;0.80;;;;;;;-3.77;79.75;97891.78;29373;249;63004;-60
2024/01/21 00:11:12;;;;;;;0.80;0.80;;;;;;;-3.77;79.55;97896.25;29371;232;64009;-61
2024/01/21 00:11:44;;;;;;;2.20;2.20;;;;;;;-3.76;79.73;97897.91;29373;233;63005;-61
2024/01/21 00:12:15;;;;;;;0.80;0.80;;;;;;;-3.78;79.86;97903.41;29373;246;63009;-61
2024/01/21 00:12:47;;;;;;;0.80;0.80;;;;;;;-3.79;79.95;97892.97;29373;207;63005;-59
2024/01/21 00:13:18;;;;;;;0.73;0.73;;;;;;;-3.79;80.20;97892.97;29373;236;63009;-60
2024/01/21 00:13:50;;;;;;;0.77;0.77;;;;;;;-3.78;80.05;97894.62;29373;242;63005;-60
2024/01/21 00:14:21;;;;;;;3.45;3.30;;;;;;;-3.78;79.91;97899.91;29373;286;63009;-60
2024/01/21 00:14:52;;;;;;;0.80;0.80;;;;;;;-3.78;79.99;97894.62;29373;253;63005;-60
2024/01/21 00:15:24;;;;;;;0.75;0.75;;;;;;;-3.78;80.00;97889.31;29373;220;63009;-61
2024/01/21 00:15:55;;;;;;;0.80;0.80;;;;;;;-3.79;79.93;97891.13;29373;204;63004;-61
2024/01/21 00:16:27;;;;;;;0.70;0.70;;;;;;;-3.78;80.05;97890.13;29371;213;64009;-61
2024/01/21 00:16:59;;;;;;;0.80;0.80;;;;;;;-3.76;80.03;97895.25;29373;203;63004;-60
2024/01/21 00:17:31;;;;;;;0.80;0.80;;;;;;;-3.77;80.05;97896.25;29373;205;63008;-60
2024/01/21 00:18:03;;;;;;;0.80;0.80;;;;;;;-3.78;80.06;97890.13;29373;201;63004;-61
2024/01/21 00:18:35;;;;;;;0.80;0.80;;;;;;;-3.78;79.81;97889.31;29373;227;63009;-60
2024/01/21 00:19:06;;;;;;;0.80;0.80;;;;;;;-3.81;79.88;97895.00;29373;213;63005;-60
2024/01/21 00:19:39;;;;;;;0.80;0.80;;;;;;;-3.81;80.15;97889.69;29371;248;64009;-60
2024/01/21 00:20:12;;;;;;;0.80;0.80;;;;;;;-3.81;80.21;97889.69;29373;203;63005;-60
2024/01/21 00:20:43;;;;;;;0.80;0.80;;;;;;;-3.81;79.90;97895.00;29373;251;63009;-60
2024/01/21 00:21:15;;;;;;;0.80;0.80;;;;;;;-3.81;79.79;97895.78;29373;211;63005;-60
2024/01/21 00:21:47;;;;;;;0.80;0.80;;;;;;;-3.80;80.07;97901.91;29373;226;63009;-60
2024/01/21 00:22:18;;;;;;;0.80;0.80;;;;;;;-3.80;80.14;97897.44;29373;206;63004;-61
2024/01/21 00:22:50;;;;;;;0.80;0.80;;;;;;;-3.80;80.31;97896.63;29373;212;63009;-61
2024/01/21 00:23:21;;;;;;;0.80;0.80;;;;;;;-3.82;80.01;97894.16;29373;233;63004;-60
2024/01/21 00:23:53;;;;;;;0.80;0.80;;;;;;;-3.83;80.24;97894.34;29373;199;63009;-60
2024/01/21 00:24:34;;;;;;;0.80;0.80;;;;;;;-3.86;80.53;97902.66;29373;225;63004;-61
2024/01/21 00:25:09;;;;;;;0.80;0.80;;;;;;;-3.88;81.42;97904.66;29371;215;64008;-60
2024/01/21 00:25:42;;;;;;;0.70;0.70;;;;;;;-3.91;81.57;97905.00;29373;232;63004;-60
2024/01/21 00:26:18;;;;;;;0.80;0.80;;;;;;;-3.92;81.96;97909.47;29373;268;63009;-60
2024/01/21 00:26:49;;;;;;;0.80;0.80;;;;;;;-3.92;81.95;97906.00;29373;205;63005;-61
2024/01/21 00:27:21;;;;;;;0.77;0.77;;;;;;;-3.92;81.94;97909.47;29373;218;63009;-61
2024/01/21 00:27:58;;;;;;;0.70;0.70;;;;;;;-3.90;82.14;97906.66;29373;206;63005;-59
2024/01/21 00:28:31;;;;;;;0.80;0.80;;;;;;;-3.91;81.97;97908.47;29373;203;63009;-60
2024/01/21 00:29:10;;;;;;;0.80;0.80;;;;;;;-3.89;82.13;97908.31;29373;280;63005;-60
2024/01/21 00:29:43;;;;;;;0.80;0.80;;;;;;;-3.90;82.14;97904.00;29373;253;63009;-60
2024/01/21 00:30:17;;;;;;;0.80;0.80;;;;;;;-3.90;82.07;97901.34;29371;219;64004;-60
2024/01/21 00:30:48;;;;;;;0.80;0.80;;;;;;;-3.90;81.83;97901.34;29373;279;63009;-60
2024/01/21 00:31:20;;;;;;;0.73;0.73;;;;;;;-3.90;81.66;97904.00;29373;198;63004;-60
2024/01/21 00:31:56;;;;;;;0.80;0.80;;;;;;;-3.90;81.46;97904.84;29373;216;63008;-60
2024/01/21 00:32:33;;;;;;;0.80;0.80;;;;;;;-3.91;80.88;97897.06;29373;261;63004;-60
2024/01/21 00:33:06;;;;;;;0.70;0.70;;;;;;;-3.90;81.07;97898.69;29371;258;64009;-60
2024/01/21 00:33:41;;;;;;;0.80;0.80;;;;;;;-3.91;80.97;97894.41;29373;240;63005;-60
2024/01/21 00:34:17;;;;;;;0.80;0.80;;;;;;;-3.89;80.90;97897.69;29373;230;63009;-60
2024/01/21 00:34:51;;;;;;;0.70;0.70;;;;;;;-3.88;80.73;97894.06;29373;241;63005;-60
2024/01/21 00:35:25;;;;;;;0.80;0.80;;;;;;;-3.88;80.59;97886.91;29373;206;63009;-60
2024/01/21 00:36:02;;;;;;;0.80;0.80;;;;;;;-3.87;80.50;97885.91;29373;219;63005;-57
2024/01/21 00:36:37;;;;;;;0.80;0.80;;;;;;;-3.85;80.63;97885.75;29371;204;64009;-59
2024/01/21 00:37:11;;;;;;;0.80;0.80;;;;;;;-3.84;80.14;97887.41;29373;259;63004;-62
2024/01/21 00:37:49;;;;;;;0.80;0.80;;;;;;;-3.86;79.98;97886.75;29373;224;63009;-59
2024/01/21 00:38:25;;;;;;;0.80;0.80;;;;;;;-3.86;79.77;97878.78;29373;214;63004;-58
2024/01/21 00:39:10;;;;;;;0.80;0.80;;;;;;;-3.86;79.84;97881.44;29373;225;63009;-61
2024/01/21 00:39:43;;;;;;;0.80;0.80;;;;;;;-3.85;79.68;97888.41;29373;199;63004;-59
2024/01/21 00:40:18;;;;;;;0.80;0.80;;;;;;;-3.83;79.37;97881.09;29373;293;63009;-60
2024/01/21 00:40:49;;;;;;;0.80;0.80;;;;;;;-3.83;79.34;97881.09;29373;217;63005;-60
2024/01/21 00:41:20;;;;;;;0.70;0.70;;;;;;;-3.83;79.39;97881.09;29373;213;63009;-60
2024/01/21 00:41:52;;;;;;;0.80;0.80;;;;;;;-3.84;79.30;97884.75;29371;210;64005;-59
2024/01/21 00:42:23;;;;;;;2.03;1.98;;;;;;;-3.83;79.73;97889.03;29373;259;63009;-59
2024/01/21 00:42:59;;;;;;;0.80;0.80;;;;;;;-3.81;79.33;97884.38;29371;240;64005;-60
2024/01/21 00:43:30;;;;;;;0.80;0.80;;;;;;;-3.82;79.26;97888.88;29371;245;64009;-60
2024/01/21 00:44:01;;;;;;;0.80;0.80;;;;;;;-3.81;79.15;97885.19;29373;212;63005;-61
2024/01/21 00:44:33;;;;;;;0.80;0.80;;;;;;;-3.80;78.41;97875.41;29371;202;64009;-60
2024/01/21 00:45:05;;;;;;;0.80;0.80;;;;;;;-3.80;78.23;97881.53;29373;232;63004;-60
2024/01/21 00:45:37;;;;;;;0.80;0.80;;;;;;;-3.81;78.43;97884.38;29373;202;63021;-56
2024/01/21 00:46:09;;;;;;;0.80;0.80;;;;;;;-3.82;78.54;97878.25;29373;202;63000;-60
2024/01/21 00:46:40;;;;;;;0.80;0.80;;;;;;;-3.83;78.59;97881.91;29373;220;63009;-60
2024/01/21 00:47:12;;;;;;;0.80;0.80;;;;;;;-3.84;78.64;97877.62;29373;221;63004;-60
2024/01/21 00:47:43;;;;;;;0.80;0.80;;;;;;;-3.83;78.58;97878.44;29371;223;64009;-60
2024/01/21 00:48:14;;;;;;;0.80;0.80;;;;;;;-3.81;78.55;97873.78;29371;209;64005;-60
2024/01/21 00:48:46;;;;;;;0.80;0.80;;;;;;;-3.79;78.41;97887.66;29373;203;63009;-60
2024/01/21 00:49:17;;;;;;;0.80;0.80;;;;;;;-3.80;78.28;97881.53;29371;213;64005;-61
2024/01/21 00:49:48;;;;;;;0.70;0.70;;;;;;;-3.81;78.41;97879.88;29373;198;63009;-60
2024/01/21 00:50:19;;;;;;;0.80;0.80;;;;;;;-3.82;78.68;97882.75;29373;196;63011;-60
2024/01/21 00:50:51;;;;;;;0.75;0.75;;;;;;;-3.84;78.80;97885.56;29373;214;63009;-60
2024/01/21 00:51:22;;;;;;;0.90;0.90;;;;;;;-3.86;79.04;97882.25;29373;212;63005;-57
2024/01/21 00:51:53;;;;;;;0.70;0.70;;;;;;;-3.87;79.51;97895.69;29373;283;63009;-59
2024/01/21 00:52:25;;;;;;;0.80;0.80;;;;;;;-3.90;79.67;97894.22;29373;243;63004;-60
2024/01/21 00:52:56;;;;;;;0.80;0.80;;;;;;;-3.89;79.79;97895.06;29373;197;63009;-60
2024/01/21 00:53:28;;;;;;;0.80;0.80;;;;;;;-3.89;79.76;97895.88;29373;228;63004;-58
2024/01/21 00:53:59;;;;;;;0.80;0.80;;;;;;;-3.88;79.71;97894.06;29371;218;64009;-59
2024/01/21 00:54:32;;;;;;;0.80;0.80;;;;;;;-3.89;79.45;97893.22;29374;196;63004;-61
2024/01/21 00:55:04;;;;;;;0.70;0.70;;;;;;;-3.87;79.22;97896.53;29373;210;63008;-60
2024/01/21 00:55:35;;;;;;;0.70;0.70;;;;;;;-3.86;78.85;97894.69;29373;215;63005;-60
2024/01/21 00:56:07;;;;;;;0.80;0.80;;;;;;;-3.87;78.85;97895.69;29373;237;63009;-59
2024/01/21 00:56:38;;;;;;;0.80;0.80;;;;;;;-3.87;79.15;97890.41;29373;228;63010;-60
2024/01/21 00:57:09;;;;;;;0.80;0.80;;;;;;;-3.85;79.16;97889.22;29373;241;63009;-59
2024/01/21 00:57:42;;;;;;;0.70;0.70;;;;;;;-3.82;78.72;97888.03;29373;218;63005;-60
2024/01/21 00:58:13;;;;;;;0.80;0.80;;;;;;;-3.80;78.07;97883.34;29371;203;64009;-60
2024/01/21 00:58:44;;;;;;;0.80;0.80;;;;;;;-3.78;77.79;97890.13;29373;267;63005;-60
2024/01/21 00:59:16;;;;;;;0.80;0.80;;;;;;;-3.76;77.31;97882.00;29373;227;63009;-60
2024/01/21 00:59:47;;;;;;;0.75;0.75;;;;;;;-3.73;77.00;97876.34;29373;208;63004;-60
2024/01/21 01:00:22;;;;;;;0.80;0.80;;;;;;;-3.72;77.35;97878.00;29373;266;63009;-60
2024/01/21 01:00:53;;;;;;;2.80;2.70;;;;;;;-3.70;77.54;97883.94;29373;227;63004;-60
2024/01/21 01:01:24;;;;;;;0.70;0.70;;;;;;;-3.68;77.21;97879.28;29373;232;63009;-61
2024/01/21 01:01:55;;;;;;;0.77;0.77;;;;;;;-3.68;76.70;97879.28;29373;201;63004;-60
2024/01/21 01:02:28;;;;;;;1.27;1.27;;;;;;;-3.67;76.86;97886.25;29373;220;63019;-59
2024/01/21 01:02:59;;;;;;;0.70;0.70;;;;;;;-3.65;76.21;97883.41;29373;227;63005;-59
2024/01/21 01:03:31;;;;;;;0.70;0.70;;;;;;;-3.65;76.61;97878.94;29371;206;64009;-60
2024/01/21 01:04:02;;;;;;;0.70;0.70;;;;;;;-3.65;76.68;97878.94;29373;255;63005;-60
2024/01/21 01:04:33;;;;;;;0.80;0.80;;;;;;;-3.64;76.71;97880.59;29373;222;63009;-57
2024/01/21 01:05:06;;;;;;;0.70;0.70;;;;;;;-3.64;76.58;97883.25;29373;210;63005;-60
2024/01/21 01:05:37;;;;;;;0.80;0.80;;;;;;;-3.63;76.43;97879.59;29373;206;63009;-59
2024/01/21 01:06:08;;;;;;;0.80;0.80;;;;;;;-3.62;75.90;97888.38;29373;230;63004;-60
2024/01/21 01:06:40;;;;;;;0.80;0.80;;;;;;;-3.62;75.93;97883.88;29373;256;63009;-60
2024/01/21 01:07:11;;;;;;;0.80;0.80;;;;;;;-3.61;75.58;97885.53;29373;283;63004;-60
2024/01/21 01:07:42;;;;;;;0.80;0.80;;;;;;;-3.61;75.16;97880.22;29373;202;63009;-59
2024/01/21 01:08:13;;;;;;;0.70;0.70;;;;;;;-3.61;75.16;97888.19;29373;202;63004;-61
2024/01/21 01:08:45;;;;;;;0.80;0.80;;;;;;;-3.62;75.26;97883.06;29371;208;64008;-59
2024/01/21 01:09:16;;;;;;;0.80;0.80;;;;;;;-3.61;75.65;97887.38;29373;233;63004;-59
2024/01/21 01:09:47;;;;;;;0.80;0.80;;;;;;;-3.62;76.03;97883.88;29372;249;63008;-60
2024/01/21 01:10:19;;;;;;;0.80;0.80;;;;;;;-3.61;75.65;97880.22;29373;209;63005;-60
2024/01/21 01:10:50;;;;;;;0.80;0.80;;;;;;;-3.61;75.20;97877.56;29373;269;63009;-61
2024/01/21 01:11:22;;;;;;;0.70;0.70;;;;;;;-3.60;75.37;97884.53;29373;251;63005;-60
2024/01/21 01:11:55;;;;;;;0.70;0.70;;;;;;;-3.61;75.66;97885.53;29373;226;63009;-59
2024/01/21 01:12:26;;;;;;;0.80;0.80;;;;;;;-3.64;75.87;97885.88;29373;238;63005;-60
2024/01/21 01:12:58;;;;;;;0.80;0.80;;;;;;;-3.66;75.99;97876.47;29373;198;63009;-60
2024/01/21 01:13:29;;;;;;;0.80;0.80;;;;;;;-3.66;76.10;97882.59;29371;242;64005;-60
2024/01/21 01:14:02;;;;;;;0.75;0.75;;;;;;;-3.67;76.50;97882.75;29373;225;63019;-60
2024/01/21 01:14:34;;;;;;;0.80;0.80;;;;;;;-3.68;76.59;97884.59;29373;266;63004;-60
2024/01/21 01:15:11;;;;;;;0.70;0.70;;;;;;;-3.68;76.87;97884.59;29373;244;63015;-61
2024/01/21 01:15:42;;;;;;;0.80;0.80;;;;;;;-3.69;76.87;97882.94;29373;213;63004;-59
2024/01/21 01:16:13;;;;;;;0.70;0.70;;;;;;;-3.69;76.83;97882.94;29373;290;63008;-60
2024/01/21 01:16:44;;;;;;;0.80;0.80;;;;;;;-3.66;76.46;97877.28;29373;270;63004;-60
2024/01/21 01:17:15;;;;;;;0.80;0.80;;;;;;;-3.64;75.77;97877.09;29373;184;63009;-60
2024/01/21 01:17:47;;;;;;;5.43;5.18;;;;;;;-3.63;76.19;97879.59;29373;281;63005;-60
2024/01/21 01:18:19;;;;;;;0.70;0.70;;;;;;;-3.65;75.99;97872.81;29371;241;64009;-60
2024/01/21 01:18:50;;;;;;;0.70;0.70;;;;;;;-3.67;76.14;97870.31;29373;261;63005;-61
2024/01/21 01:19:22;;;;;;;0.80;0.80;;;;;;;-3.67;76.45;97875.63;29371;278;64009;-61
2024/01/21 01:19:53;;;;;;;0.80;0.80;;;;;;;-3.66;76.42;97866.69;29373;224;63005;-60
2024/01/21 01:20:24;;;;;;;0.70;0.70;;;;;;;-3.63;76.40;97876.09;29373;212;63009;-59
2024/01/21 01:20:55;;;;;;;0.70;0.70;;;;;;;-3.62;76.02;97869.78;29373;200;63005;-60
2024/01/21 01:21:26;;;;;;;0.70;0.70;;;;;;;-3.62;75.63;97867.97;29372;205;64009;-61
2024/01/21 01:21:57;;;;;;;0.80;0.80;;;;;;;-3.61;75.38;97859.00;29373;243;63004;-58
2024/01/21 01:22:29;;;;;;;0.70;0.70;;;;;;;-3.60;75.54;97863.31;29373;228;63009;-61
2024/01/21 01:23:01;;;;;;;0.75;0.75;;;;;;;-3.55;74.66;97860.13;29373;239;63004;-60
2024/01/21 01:23:32;;;;;;;0.70;0.70;;;;;;;-3.54;74.04;97853.81;29373;206;63009;-60
2024/01/21 01:24:04;;;;;;;0.80;0.80;;;;;;;-3.54;73.93;97857.28;29373;231;63004;-60
2024/01/21 01:24:36;;;;;;;0.80;0.80;;;;;;;-3.55;73.96;97855.62;29371;216;64009;-60
2024/01/21 01:25:08;;;;;;;0.80;0.80;;;;;;;-3.53;73.88;97850.97;29373;202;63005;-60
2024/01/21 01:25:39;;;;;;;2.00;1.92;;;;;;;-3.50;74.13;97853.28;29371;208;64009;-60
2024/01/21 01:26:10;;;;;;;0.75;0.75;;;;;;;-3.50;73.70;97850.63;29373;233;63005;-60
2024/01/21 01:26:42;;;;;;;0.70;0.70;;;;;;;-3.50;73.98;97853.28;29373;218;63009;-60
2024/01/21 01:27:13;;;;;;;0.77;0.77;;;;;;;-3.50;74.06;97855.09;29373;216;63005;-60
2024/01/21 01:27:44;;;;;;;0.80;0.80;;;;;;;-3.49;74.28;97867.37;29373;230;63009;-61
2024/01/21 01:28:16;;;;;;;0.70;0.70;;;;;;;-3.48;74.23;97853.91;29373;242;63005;-59
2024/01/21 01:28:47;;;;;;;0.80;0.80;;;;;;;-3.49;74.05;97857.56;29373;196;63009;-60
2024/01/21 01:29:18;;;;;;;0.90;0.90;;;;;;;-3.47;73.64;97860.88;29373;242;63008;-61
2024/01/21 01:29:49;;;;;;;0.80;0.80;;;;;;;-3.49;73.53;97846.13;29373;229;63009;-60
2024/01/21 01:30:20;;;;;;;0.75;0.75;;;;;;;-3.52;73.43;97849.97;29371;208;64004;-60
2024/01/21 01:30:52;;;;;;;0.80;0.80;;;;;;;-3.57;73.25;97854.16;29373;246;63009;-60
2024/01/21 01:31:23;;;;;;;0.80;0.80;;;;;;;-3.60;73.53;97860.66;29371;206;64004;-59
2024/01/21 01:31:54;;;;;;;0.80;0.80;;;;;;;-3.62;73.86;97859.19;29373;205;63008;-60
2024/01/21 01:32:28;;;;;;;0.70;0.70;;;;;;;-3.62;74.10;97860.00;29373;284;63005;-58
2024/01/21 01:33:00;;;;;;;0.70;0.70;;;;;;;-3.63;74.14;97854.88;29373;216;63009;-60
2024/01/21 01:33:31;;;;;;;0.80;0.80;;;;;;;-3.61;74.25;97861.66;29373;210;63005;-58
2024/01/21 01:34:02;;;;;;;0.80;0.80;;;;;;;-3.61;73.95;97864.31;29373;241;63009;-60
2024/01/21 01:34:33;;;;;;;0.70;0.70;;;;;;;-3.63;73.65;97854.88;29373;210;63005;-59
2024/01/21 01:35:08;;;;;;;0.80;0.80;;;;;;;-3.64;73.95;97859.37;29373;253;63009;-60
2024/01/21 01:35:39;;;;;;;0.80;0.80;;;;;;;-3.64;73.63;97853.22;29371;212;64005;-60
2024/01/21 01:36:10;;;;;;;0.80;0.80;;;;;;;-3.66;73.57;97856.06;29373;208;63009;-60
2024/01/21 01:36:42;;;;;;;1.15;1.15;;;;;;;-3.62;73.75;97849.41;29373;212;63004;-60
2024/01/21 01:37:14;;;;;;;0.80;0.80;;;;;;;-3.62;73.87;97846.75;29373;199;63009;-59
2024/01/21 01:37:45;;;;;;;0.80;0.80;;;;;;;-3.64;73.62;97846.09;29373;229;63004;-60
2024/01/21 01:38:16;;;;;;;0.80;0.80;;;;;;;-3.64;74.28;97854.06;29373;202;63009;-61
2024/01/21 01:38:48;;;;;;;0.75;0.75;;;;;;;-3.69;74.22;97843.16;29373;242;63004;-60
2024/01/21 01:39:19;;;;;;;0.70;0.70;;;;;;;-3.63;74.72;97855.72;29373;275;63008;-61
2024/01/21 01:39:51;;;;;;;0.80;0.80;;;;;;;-3.62;74.22;97846.75;29373;232;63005;-60
2024/01/21 01:40:22;;;;;;;0.70;0.70;;;;;;;-3.57;73.58;97838.25;29372;259;63009;-60
2024/01/21 01:40:56;;;;;;;0.80;0.80;;;;;;;-3.53;73.14;97845.69;29371;217;64005;-61
2024/01/21 01:41:27;;;;;;;0.80;0.80;;;;;;;-3.53;73.17;97842.19;29373;225;63009;-58
2024/01/21 01:41:59;;;;;;;0.80;0.80;;;;;;;-3.54;73.04;97837.91;29373;218;63005;-61
2024/01/21 01:42:30;;;;;;;0.80;0.80;;;;;;;-3.52;72.97;97836.72;29373;218;63009;-60
2024/01/21 01:43:02;;;;;;;0.80;0.80;;;;;;;-3.53;72.82;97839.53;29373;204;63005;-57
2024/01/21 01:43:33;;;;;;;0.80;0.80;;;;;;;-3.56;72.93;97838.06;29373;216;63009;-59
2024/01/21 01:44:05;;;;;;;0.80;0.80;;;;;;;-3.56;73.10;97842.56;29373;202;63004;-60
2024/01/21 01:44:40;;;;;;;0.80;0.80;;;;;;;-3.53;72.99;97839.53;29373;289;63009;-59
2024/01/21 01:45:12;;;;;;;0.80;0.80;;;;;;;-3.55;72.77;97838.91;29373;247;63004;-60
2024/01/21 01:45:43;;;;;;;0.80;0.80;;;;;;;-3.60;73.02;97844.75;29371;214;64009;-60
2024/01/21 01:46:15;;;;;;;0.80;0.80;;;;;;;-3.62;73.33;97841.44;29373;245;63004;-60
2024/01/21 01:46:49;;;;;;;0.75;0.75;;;;;;;-3.64;73.75;97838.16;29373;196;63008;-60
2024/01/21 01:47:21;;;;;;;0.80;0.80;;;;;;;-3.67;74.19;97849.13;29373;220;63005;-59
2024/01/21 01:47:52;;;;;;;1.48;1.48;;;;;;;-3.66;74.15;97845.44;29373;258;63009;-59
2024/01/21 01:48:23;;;;;;;0.80;0.80;;;;;;;-3.65;73.83;97852.41;29373;210;63005;-60
2024/01/21 01:48:55;;;;;;;0.80;0.80;;;;;;;-3.62;73.74;97841.44;29373;215;63009;-60
2024/01/21 01:49:27;;;;;;;0.80;0.80;;;;;;;-3.63;73.58;97850.41;29373;202;63005;-57
2024/01/21 01:49:59;;;;;;;0.73;0.73;;;;;;;-3.63;73.77;97844.28;29373;228;63009;-59
2024/01/21 01:50:35;;;;;;;0.80;0.80;;;;;;;-3.60;73.18;97839.44;29373;235;63005;-60
2024/01/21 01:51:07;;;;;;;0.80;0.80;;;;;;;-3.60;73.30;97839.44;29372;225;63009;-60
2024/01/21 01:51:39;;;;;;;2.35;2.25;;;;;;;-3.59;73.50;97841.09;29373;254;63009;-60
2024/01/21 01:52:15;;;;;;;0.75;0.75;;;;;;;-3.58;73.64;97840.09;29371;238;64009;-58
2024/01/21 01:52:47;;;;;;;0.80;0.80;;;;;;;-3.58;73.50;97837.44;29373;208;63004;-59
2024/01/21 01:53:19;;;;;;;0.70;0.70;;;;;;;-3.59;73.57;97838.44;29373;222;63009;-59
2024/01/21 01:53:53;;;;;;;0.80;0.80;;;;;;;-3.56;73.51;97840.72;29373;211;63004;-61
2024/01/21 01:54:28;;;;;;;0.80;0.80;;;;;;;-3.56;73.37;97846.03;29373;221;63008;-61
2024/01/21 01:54:59;;;;;;;0.80;0.80;;;;;;;-3.57;73.10;97833.78;29372;242;63005;-59
2024/01/21 01:55:31;;;;;;;0.80;0.80;;;;;;;-3.56;72.98;97840.72;29373;227;63009;-59
2024/01/21 01:56:04;;;;;;;0.80;0.80;;;;;;;-3.54;72.87;97837.91;29373;240;63005;-58
2024/01/21 01:56:36;;;;;;;0.80;0.80;;;;;;;-3.51;72.97;97838.34;29373;228;63009;-60
2024/01/21 01:57:09;;;;;;;3.15;3.00;;;;;;;-3.50;72.79;97833.88;29371;255;64005;-60
2024/01/21 01:57:48;;;;;;;0.80;0.80;;;;;;;-3.50;72.67;97828.56;29371;250;64009;-60
2024/01/21 01:58:21;;;;;;;0.80;0.80;;;;;;;-3.49;72.62;97828.41;29373;202;63005;-60
2024/01/21 01:58:54;;;;;;;1.20;1.17;;;;;;;-3.46;72.50;97830.66;29373;269;63025;-60
2024/01/21 01:59:28;;;;;;;0.70;0.70;;;;;;;-3.41;71.40;97828.28;29373;234;63004;-60
2024/01/21 01:59:59;;;;;;;0.70;0.70;;;;;;;-3.39;71.13;97823.63;29373;208;63009;-60
2024/01/21 02:00:30;;;;;;;0.80;0.80;;;;;;;-3.42;71.61;97823.97;29371;217;64004;-60
2024/01/21 02:01:02;;;;;;;0.70;0.70;;;;;;;-3.43;71.69;97829.47;29373;266;63009;-60
2024/01/21 02:01:33;;;;;;;0.70;0.70;;;;;;;-3.43;71.60;97822.34;29372;245;63004;-60
2024/01/21 02:02:06;;;;;;;1.65;1.65;;;;;;;-3.42;71.60;97829.28;29373;207;63008;-60
2024/01/21 02:02:37;;;;;;;0.90;0.90;;;;;;;-3.44;72.08;97830.47;29371;267;64005;-60
2024/01/21 02:03:09;;;;;;;0.70;0.70;;;;;;;-3.46;72.49;97835.97;29373;221;63009;-60
2024/01/21 02:03:41;;;;;;;0.70;0.70;;;;;;;-3.45;72.32;97828.81;29373;238;63005;-60
2024/01/21 02:04:13;;;;;;;0.80;0.80;;;;;;;-3.46;71.67;97828.00;29373;196;63009;-60
2024/01/21 02:04:44;;;;;;;0.70;0.70;;;;;;;-3.46;71.34;97825.34;29373;200;63005;-60
2024/01/21 02:05:15;;;;;;;0.90;0.90;;;;;;;-3.47;71.20;97823.72;29373;212;63009;-60
2024/01/21 02:05:46;;;;;;;0.70;0.70;;;;;;;-3.47;71.59;97825.56;29373;211;63005;-60
2024/01/21 02:06:18;;;;;;;0.80;0.80;;;;;;;-3.48;71.65;97818.59;29371;266;64009;-60
2024/01/21 02:06:50;;;;;;;0.80;0.80;;;;;;;-3.49;71.83;97825.75;29371;222;64004;-60
2024/01/21 02:07:21;;;;;;;0.70;0.70;;;;;;;-3.49;71.71;97819.59;29373;218;63009;-60
2024/01/21 02:07:52;;;;;;;0.70;0.70;;;;;;;-3.48;71.55;97822.09;29373;215;63004;-60
2024/01/21 02:08:23;;;;;;;0.70;0.70;;;;;;;-3.48;71.82;97822.09;29373;252;63009;-60
2024/01/21 02:08:55;;;;;;;0.70;0.70;;;;;;;-3.48;71.99;97816.78;29373;199;63004;-60
2024/01/21 02:09:26;;;;;;;0.70;0.70;;;;;;;-3.47;72.10;97817.59;29373;203;63008;-60
2024/01/21 02:09:57;;;;;;;0.70;0.70;;;;;;;-3.47;72.24;97820.25;29373;203;63015;-60
2024/01/21 02:10:29;;;;;;;1.08;1.08;;;;;;;-3.48;72.57;97822.09;29373;203;63009;-58
2024/01/21 02:11:03;;;;;;;0.80;0.80;;;;;;;-3.51;72.78;97822.44;29373;294;63005;-60
2024/01/21 02:11:34;;;;;;;0.80;0.80;;;;;;;-3.54;72.37;97820.16;29371;219;64009;-60
2024/01/21 02:12:06;;;;;;;0.70;0.70;;;;;;;-3.56;72.32;97818.69;29373;203;63005;-57
2024/01/21 02:12:44;;;;;;;0.80;0.80;;;;;;;-3.55;72.57;97815.03;29373;207;63009;-60
2024/01/21 02:13:15;;;;;;;0.80;0.80;;;;;;;-3.52;72.67;97819.97;29371;244;64004;-60
2024/01/21 02:13:49;;;;;;;0.80;0.80;;;;;;;-3.50;72.80;97823.28;29373;263;63009;-59
2024/01/21 02:14:20;;;;;;;0.77;0.77;;;;;;;-3.51;73.02;97822.44;29371;246;64004;-60
2024/01/21 02:14:52;;;;;;;0.80;0.80;;;;;;;-3.50;73.12;97823.28;29373;211;63009;-60
2024/01/21 02:15:23;;;;;;;0.70;0.70;;;;;;;-3.49;72.63;97819.59;29373;214;63004;-60
2024/01/21 02:15:54;;;;;;;1.37;1.37;;;;;;;-3.48;72.67;97815.94;29373;217;63008;-60
2024/01/21 02:16:25;;;;;;;0.90;0.90;;;;;;;-3.50;72.47;97804.69;29373;215;63004;-60
2024/01/21 02:16:57;;;;;;;0.80;0.80;;;;;;;-3.46;72.05;97814.72;29373;284;63019;-59
2024/01/21 02:17:28;;;;;;;0.70;0.70;;;;;;;-3.42;71.76;97805.41;29373;199;63005;-60
2024/01/21 02:18:00;;;;;;;0.80;0.80;;;;;;;-3.45;71.97;97804.94;29373;199;63009;-61
2024/01/21 02:18:35;;;;;;;0.80;0.80;;;;;;;-3.46;72.21;97812.09;29373;212;63005;-58
2024/01/21 02:19:15;;;;;;;0.70;0.70;;;;;;;-3.46;72.55;97806.78;29371;204;64009;-58
2024/01/21 02:19:46;;;;;;;0.80;0.80;;;;;;;-3.45;72.37;97810.25;29371;221;64005;-61
2024/01/21 02:20:18;;;;;;;0.80;0.80;;;;;;;-3.41;71.57;97796.44;29373;230;63009;-60
2024/01/21 02:20:49;;;;;;;0.80;0.80;;;;;;;-3.39;71.44;97794.44;29373;276;63004;-60
2024/01/21 02:21:20;;;;;;;1.40;1.40;;;;;;;-3.33;70.93;97792.06;29373;227;63009;-59
2024/01/21 02:21:52;;;;;;;0.80;0.80;;;;;;;-3.35;70.88;97796.72;29373;215;63004;-60
2024/01/21 02:22:25;;;;;;;0.70;0.70;;;;;;;-3.33;71.05;97792.06;29373;212;63009;-60
2024/01/21 02:22:58;;;;;;;0.80;0.80;;;;;;;-3.38;70.88;97784.63;29373;203;63004;-58
2024/01/21 02:23:29;;;;;;;0.70;0.70;;;;;;;-3.42;71.18;97783.34;29373;242;63008;-60
2024/01/21 02:24:00;;;;;;;0.90;0.90;;;;;;;-3.47;71.30;97786.59;29371;266;64004;-61
2024/01/21 02:24:33;;;;;;;0.73;0.73;;;;;;;-3.50;71.66;97786.94;29371;207;64009;-58
2024/01/21 02:25:05;;;;;;;0.75;0.75;;;;;;;-3.51;71.64;97793.25;29371;232;64005;-60
2024/01/21 02:25:36;;;;;;;0.80;0.80;;;;;;;-3.51;71.77;97790.59;29373;276;63009;-57
2024/01/21 02:26:08;;;;;;;0.98;0.98;;;;;;;-3.50;71.74;97780.81;29373;217;63005;-60
2024/01/21 02:26:39;;;;;;;0.80;0.80;;;;;;;-3.52;71.94;97785.47;29373;233;63009;-59
2024/01/21 02:27:11;;;;;;;0.80;0.80;;;;;;;-3.55;71.82;97776.06;29373;229;63005;-60
2024/01/21 02:27:42;;;;;;;2.28;2.17;;;;;;;-3.52;72.15;97778.34;29373;218;63005;-60
2024/01/21 02:28:13;;;;;;;0.80;0.80;;;;;;;-3.52;72.30;97788.97;29373;240;63005;-57
2024/01/21 02:28:45;;;;;;;0.98;0.98;;;;;;;-3.51;72.09;97780.00;29373;229;63009;-61
2024/01/21 02:29:20;;;;;;;0.80;0.80;;;;;;;-3.49;71.68;97777.97;29373;216;63004;-60
2024/01/21 02:29:51;;;;;;;0.80;0.80;;;;;;;-3.46;71.69;97772.28;29372;286;64009;-60
2024/01/21 02:30:22;;;;;;;0.80;0.80;;;;;;;-3.49;71.55;97777.97;29373;207;63004;-60
2024/01/21 02:30:54;;;;;;;1.02;1.02;;;;;;;-3.51;71.96;97777.34;29373;206;63008;-58
2024/01/21 02:31:25;;;;;;;1.10;1.10;;;;;;;-3.51;71.78;97764.06;29373;277;63004;-60
2024/01/21 02:31:58;;;;;;;0.80;0.80;;;;;;;-3.51;72.16;97774.69;29373;224;63009;-60
2024/01/21 02:32:30;;;;;;;0.70;0.70;;;;;;;-3.53;72.09;97776.69;29373;203;63005;-60
2024/01/21 02:33:01;;;;;;;0.73;0.73;;;;;;;-3.57;72.43;97774.59;29373;219;63009;-60